sensor_id;sensor_type;location;lat;lon;timestamp;P1;durP1;ratioP1;P2;durP2;ratioP2
30243;SDS011;64022;53.652;9.792;2022-12-18T00:00:41;47.80;;;30.13;;
30243;SDS011;64022;53.652;9.792;2022-12-18T00:03:08;50.13;;;30.95;;
30243;SDS011;64022;53.652;9.792;2022-12-18T00:05:33;48.60;;;30.13;;
30243;SDS011;64022;53.652;9.792;2022-12-18T00:07:59;50.47;;;31.30;;
30243;SDS011;64022;53.652;9.792;2022-12-18T00:10:24;50.70;;;31.73;;
30243;SDS011;64022;53.652;9.792;2022-12-18T00:12:50;46.27;;;29.90;;
30243;SDS011;64022;53.652;9.792;2022-12-18T00:15:15;49.13;;;29.60;;
30243;SDS011;64022;53.652;9.792;2022-12-18T00:17:41;43.80;;;29.60;;
30243;SDS011;64022;53.652;9.792;2022-12-18T00:20:06;51.73;;;30.23;;
30243;SDS011;64022;53.652;9.792;2022-12-18T00:22:33;44.88;;;29.65;;
30243;SDS011;64022;53.652;9.792;2022-12-18T00:24:58;51.37;;;30.87;;
30243;SDS011;64022;53.652;9.792;2022-12-18T00:27:24;45.23;;;30.00;;
30243;SDS011;64022;53.652;9.792;2022-12-18T00:29:49;48.50;;;30.47;;
30243;SDS011;64022;53.652;9.792;2022-12-18T00:32:15;47.57;;;29.77;;
30243;SDS011;64022;53.652;9.792;2022-12-18T00:34:41;41.83;;;28.17;;
30243;SDS011;64022;53.652;9.792;2022-12-18T00:37:06;45.13;;;30.53;;
30243;SDS011;64022;53.652;9.792;2022-12-18T00:39:32;43.87;;;29.03;;
30243;SDS011;64022;53.652;9.792;2022-12-18T00:41:57;44.77;;;27.97;;
30243;SDS011;64022;53.652;9.792;2022-12-18T00:44:41;49.20;;;29.70;;
30243;SDS011;64022;53.652;9.792;2022-12-18T00:47:06;48.07;;;30.07;;
30243;SDS011;64022;53.652;9.792;2022-12-18T00:49:32;46.47;;;27.27;;
30243;SDS011;64022;53.652;9.792;2022-12-18T00:51:57;40.00;;;28.87;;
30243;SDS011;64022;53.652;9.792;2022-12-18T00:54:23;48.67;;;28.60;;
30243;SDS011;64022;53.652;9.792;2022-12-18T00:56:49;41.97;;;27.67;;
30243;SDS011;64022;53.652;9.792;2022-12-18T00:59:14;43.03;;;28.38;;
30243;SDS011;64022;53.652;9.792;2022-12-18T01:01:41;41.92;;;26.38;;
30243;SDS011;64022;53.652;9.792;2022-12-18T01:04:07;49.42;;;29.45;;
30243;SDS011;64022;53.652;9.792;2022-12-18T01:06:33;43.80;;;27.70;;
30243;SDS011;64022;53.652;9.792;2022-12-18T01:08:58;45.20;;;28.47;;
30243;SDS011;64022;53.652;9.792;2022-12-18T01:11:24;47.00;;;27.70;;
30243;SDS011;64022;53.652;9.792;2022-12-18T01:13:51;42.40;;;26.53;;
30243;SDS011;64022;53.652;9.792;2022-12-18T01:16:17;45.85;;;28.38;;
30243;SDS011;64022;53.652;9.792;2022-12-18T01:18:44;45.30;;;27.63;;
30243;SDS011;64022;53.652;9.792;2022-12-18T01:21:10;41.87;;;27.07;;
30243;SDS011;64022;53.652;9.792;2022-12-18T01:23:38;38.53;;;26.75;;
30243;SDS011;64022;53.652;9.792;2022-12-18T01:26:05;41.30;;;27.30;;
30243;SDS011;64022;53.652;9.792;2022-12-18T01:28:32;41.72;;;27.13;;
30243;SDS011;64022;53.652;9.792;2022-12-18T01:31:08;41.30;;;28.63;;
30243;SDS011;64022;53.652;9.792;2022-12-18T01:33:47;46.38;;;27.38;;
30243;SDS011;64022;53.652;9.792;2022-12-18T01:36:21;39.13;;;25.43;;
30243;SDS011;64022;53.652;9.792;2022-12-18T01:38:59;42.20;;;27.23;;
30243;SDS011;64022;53.652;9.792;2022-12-18T01:41:26;40.58;;;26.77;;
30243;SDS011;64022;53.652;9.792;2022-12-18T01:47:25;38.40;;;24.80;;
30243;SDS011;64022;53.652;9.792;2022-12-18T01:50:08;47.45;;;25.73;;
30243;SDS011;64022;53.652;9.792;2022-12-18T01:52:43;37.30;;;25.73;;
30243;SDS011;64022;53.652;9.792;2022-12-18T01:55:12;38.30;;;25.85;;
30243;SDS011;64022;53.652;9.792;2022-12-18T01:57:40;35.85;;;24.92;;
30243;SDS011;64022;53.652;9.792;2022-12-18T02:00:24;42.35;;;25.73;;
30243;SDS011;64022;53.652;9.792;2022-12-18T02:02:51;35.65;;;25.52;;
30243;SDS011;64022;53.652;9.792;2022-12-18T02:08:21;36.38;;;24.45;;
30243;SDS011;64022;53.652;9.792;2022-12-18T02:11:05;36.08;;;25.63;;
30243;SDS011;64022;53.652;9.792;2022-12-18T02:14:28;38.03;;;25.13;;
30243;SDS011;64022;53.652;9.792;2022-12-18T02:16:48;39.80;;;24.20;;
30243;SDS011;64022;53.652;9.792;2022-12-18T02:27:40;32.92;;;23.63;;
30243;SDS011;64022;53.652;9.792;2022-12-18T02:30:08;35.17;;;24.08;;
30243;SDS011;64022;53.652;9.792;2022-12-18T02:32:35;35.40;;;23.43;;
30243;SDS011;64022;53.652;9.792;2022-12-18T02:35:06;33.40;;;22.73;;
30243;SDS011;64022;53.652;9.792;2022-12-18T02:37:34;37.42;;;24.35;;
30243;SDS011;64022;53.652;9.792;2022-12-18T02:40:00;31.33;;;21.60;;
30243;SDS011;64022;53.652;9.792;2022-12-18T02:42:28;39.22;;;23.35;;
30243;SDS011;64022;53.652;9.792;2022-12-18T02:44:54;32.97;;;22.50;;
30243;SDS011;64022;53.652;9.792;2022-12-18T02:47:22;33.47;;;22.53;;
30243;SDS011;64022;53.652;9.792;2022-12-18T03:01:28;30.38;;;21.02;;
30243;SDS011;64022;53.652;9.792;2022-12-18T03:06:33;31.77;;;21.60;;
30243;SDS011;64022;53.652;9.792;2022-12-18T03:09:06;28.35;;;19.88;;
30243;SDS011;64022;53.652;9.792;2022-12-18T03:11:40;33.47;;;20.55;;
30243;SDS011;64022;53.652;9.792;2022-12-18T03:14:28;27.88;;;19.27;;
30243;SDS011;64022;53.652;9.792;2022-12-18T03:16:57;31.25;;;18.90;;
30243;SDS011;64022;53.652;9.792;2022-12-18T03:19:27;29.83;;;19.55;;
30243;SDS011;64022;53.652;9.792;2022-12-18T03:21:55;28.85;;;18.83;;
30243;SDS011;64022;53.652;9.792;2022-12-18T03:24:23;24.60;;;18.30;;
30243;SDS011;64022;53.652;9.792;2022-12-18T03:26:52;28.25;;;18.48;;
30243;SDS011;64022;53.652;9.792;2022-12-18T03:29:27;28.25;;;18.35;;
30243;SDS011;64022;53.652;9.792;2022-12-18T03:32:04;27.45;;;18.90;;
30243;SDS011;64022;53.652;9.792;2022-12-18T03:34:35;27.70;;;17.63;;
30243;SDS011;64022;53.652;9.792;2022-12-18T03:37:03;24.10;;;17.70;;
30243;SDS011;64022;53.652;9.792;2022-12-18T03:39:30;24.40;;;17.45;;
30243;SDS011;64022;53.652;9.792;2022-12-18T03:44:51;24.25;;;17.23;;
30243;SDS011;64022;53.652;9.792;2022-12-18T03:47:47;25.02;;;17.52;;
30243;SDS011;64022;53.652;9.792;2022-12-18T03:53:14;24.30;;;17.15;;
30243;SDS011;64022;53.652;9.792;2022-12-18T03:55:51;23.48;;;16.15;;
30243;SDS011;64022;53.652;9.792;2022-12-18T03:58:18;24.77;;;16.90;;
30243;SDS011;64022;53.652;9.792;2022-12-18T04:00:48;26.75;;;16.40;;
30243;SDS011;64022;53.652;9.792;2022-12-18T04:03:16;22.73;;;15.93;;
30243;SDS011;64022;53.652;9.792;2022-12-18T04:05:44;25.30;;;16.70;;
30243;SDS011;64022;53.652;9.792;2022-12-18T04:08:11;25.48;;;16.95;;
30243;SDS011;64022;53.652;9.792;2022-12-18T04:10:37;25.42;;;16.67;;
30243;SDS011;64022;53.652;9.792;2022-12-18T04:13:03;25.47;;;16.17;;
30243;SDS011;64022;53.652;9.792;2022-12-18T04:15:28;28.47;;;16.67;;
30243;SDS011;64022;53.652;9.792;2022-12-18T04:17:54;24.83;;;16.33;;
30243;SDS011;64022;53.652;9.792;2022-12-18T04:20:19;21.77;;;16.03;;
30243;SDS011;64022;53.652;9.792;2022-12-18T04:22:45;26.60;;;17.23;;
30243;SDS011;64022;53.652;9.792;2022-12-18T04:25:11;22.83;;;15.47;;
30243;SDS011;64022;53.652;9.792;2022-12-18T04:27:37;23.03;;;15.53;;
30243;SDS011;64022;53.652;9.792;2022-12-18T04:30:02;24.50;;;15.40;;
30243;SDS011;64022;53.652;9.792;2022-12-18T04:32:28;24.00;;;16.00;;
30243;SDS011;64022;53.652;9.792;2022-12-18T04:34:54;23.73;;;15.23;;
30243;SDS011;64022;53.652;9.792;2022-12-18T04:37:19;20.53;;;15.43;;
30243;SDS011;64022;53.652;9.792;2022-12-18T04:39:45;24.57;;;16.57;;
30243;SDS011;64022;53.652;9.792;2022-12-18T04:42:10;22.93;;;14.40;;
30243;SDS011;64022;53.652;9.792;2022-12-18T04:44:36;23.30;;;15.50;;
30243;SDS011;64022;53.652;9.792;2022-12-18T04:47:02;21.53;;;14.70;;
30243;SDS011;64022;53.652;9.792;2022-12-18T04:49:27;19.63;;;14.67;;
30243;SDS011;64022;53.652;9.792;2022-12-18T04:51:53;23.23;;;15.57;;
30243;SDS011;64022;53.652;9.792;2022-12-18T04:54:18;21.77;;;15.47;;
30243;SDS011;64022;53.652;9.792;2022-12-18T04:56:44;23.15;;;15.05;;
30243;SDS011;64022;53.652;9.792;2022-12-18T04:59:10;23.57;;;13.70;;
30243;SDS011;64022;53.652;9.792;2022-12-18T05:01:35;20.33;;;14.23;;
30243;SDS011;64022;53.652;9.792;2022-12-18T05:04:01;18.93;;;13.03;;
30243;SDS011;64022;53.652;9.792;2022-12-18T05:06:27;22.15;;;13.52;;
30243;SDS011;64022;53.652;9.792;2022-12-18T05:08:53;19.03;;;12.60;;
30243;SDS011;64022;53.652;9.792;2022-12-18T05:11:18;19.50;;;13.43;;
30243;SDS011;64022;53.652;9.792;2022-12-18T05:13:44;19.33;;;12.95;;
30243;SDS011;64022;53.652;9.792;2022-12-18T05:16:11;19.88;;;13.77;;
30243;SDS011;64022;53.652;9.792;2022-12-18T05:21:03;20.15;;;13.10;;
30243;SDS011;64022;53.652;9.792;2022-12-18T05:23:30;18.80;;;13.65;;
30243;SDS011;64022;53.652;9.792;2022-12-18T05:25:56;20.13;;;13.03;;
30243;SDS011;64022;53.652;9.792;2022-12-18T05:28:24;18.55;;;13.15;;
30243;SDS011;64022;53.652;9.792;2022-12-18T05:30:52;16.85;;;12.55;;
30243;SDS011;64022;53.652;9.792;2022-12-18T05:33:23;19.27;;;12.52;;
30243;SDS011;64022;53.652;9.792;2022-12-18T05:35:53;17.73;;;12.23;;
30243;SDS011;64022;53.652;9.792;2022-12-18T05:38:21;16.42;;;12.32;;
30243;SDS011;64022;53.652;9.792;2022-12-18T05:40:48;18.58;;;12.73;;
30243;SDS011;64022;53.652;9.792;2022-12-18T05:43:15;17.75;;;12.50;;
30243;SDS011;64022;53.652;9.792;2022-12-18T05:45:41;17.73;;;12.18;;
30243;SDS011;64022;53.652;9.792;2022-12-18T05:48:07;17.10;;;11.93;;
30243;SDS011;64022;53.652;9.792;2022-12-18T05:50:36;18.27;;;12.52;;
30243;SDS011;64022;53.652;9.792;2022-12-18T05:53:03;17.80;;;12.07;;
30243;SDS011;64022;53.652;9.792;2022-12-18T05:55:29;17.92;;;12.18;;
30243;SDS011;64022;53.652;9.792;2022-12-18T05:57:57;17.05;;;11.00;;
30243;SDS011;64022;53.652;9.792;2022-12-18T06:00:23;15.70;;;11.37;;
30243;SDS011;64022;53.652;9.792;2022-12-18T06:02:48;16.97;;;11.80;;
30243;SDS011;64022;53.652;9.792;2022-12-18T06:05:14;19.67;;;11.90;;
30243;SDS011;64022;53.652;9.792;2022-12-18T06:07:40;15.47;;;11.23;;
30243;SDS011;64022;53.652;9.792;2022-12-18T06:10:05;16.67;;;11.27;;
30243;SDS011;64022;53.652;9.792;2022-12-18T06:12:31;19.40;;;11.37;;
30243;SDS011;64022;53.652;9.792;2022-12-18T06:14:58;14.27;;;10.35;;
30243;SDS011;64022;53.652;9.792;2022-12-18T06:17:27;16.10;;;10.87;;
30243;SDS011;64022;53.652;9.792;2022-12-18T06:19:53;15.68;;;10.60;;
30243;SDS011;64022;53.652;9.792;2022-12-18T06:22:19;17.87;;;10.83;;
30243;SDS011;64022;53.652;9.792;2022-12-18T06:24:44;17.13;;;11.83;;
30243;SDS011;64022;53.652;9.792;2022-12-18T06:27:10;14.57;;;10.23;;
30243;SDS011;64022;53.652;9.792;2022-12-18T06:29:35;15.70;;;10.53;;
30243;SDS011;64022;53.652;9.792;2022-12-18T06:32:01;14.90;;;10.07;;
30243;SDS011;64022;53.652;9.792;2022-12-18T06:34:26;14.27;;;10.83;;
30243;SDS011;64022;53.652;9.792;2022-12-18T06:36:52;14.17;;;10.20;;
30243;SDS011;64022;53.652;9.792;2022-12-18T06:39:17;15.10;;;10.80;;
30243;SDS011;64022;53.652;9.792;2022-12-18T06:41:43;14.50;;;9.50;;
30243;SDS011;64022;53.652;9.792;2022-12-18T06:44:09;14.20;;;10.38;;
30243;SDS011;64022;53.652;9.792;2022-12-18T06:46:35;19.67;;;10.80;;
30243;SDS011;64022;53.652;9.792;2022-12-18T06:49:00;17.57;;;10.27;;
30243;SDS011;64022;53.652;9.792;2022-12-18T06:51:26;18.00;;;10.17;;
30243;SDS011;64022;53.652;9.792;2022-12-18T06:53:51;19.77;;;10.57;;
30243;SDS011;64022;53.652;9.792;2022-12-18T06:56:17;16.07;;;9.57;;
30243;SDS011;64022;53.652;9.792;2022-12-18T06:58:42;17.80;;;9.87;;
30243;SDS011;64022;53.652;9.792;2022-12-18T07:01:09;18.33;;;9.77;;
30243;SDS011;64022;53.652;9.792;2022-12-18T07:03:36;16.58;;;9.93;;
30243;SDS011;64022;53.652;9.792;2022-12-18T07:08:29;14.60;;;8.23;;
30243;SDS011;64022;53.652;9.792;2022-12-18T07:10:55;14.43;;;9.35;;
30243;SDS011;64022;53.652;9.792;2022-12-18T07:13:20;17.90;;;10.10;;
30243;SDS011;64022;53.652;9.792;2022-12-18T07:15:46;12.80;;;9.00;;
30243;SDS011;64022;53.652;9.792;2022-12-18T07:18:12;13.83;;;9.13;;
30243;SDS011;64022;53.652;9.792;2022-12-18T07:20:37;12.98;;;9.10;;
30243;SDS011;64022;53.652;9.792;2022-12-18T07:23:03;15.53;;;8.97;;
30243;SDS011;64022;53.652;9.792;2022-12-18T07:25:30;14.57;;;8.60;;
30243;SDS011;64022;53.652;9.792;2022-12-18T07:27:59;15.88;;;8.52;;
30243;SDS011;64022;53.652;9.792;2022-12-18T07:30:24;15.33;;;8.83;;
30243;SDS011;64022;53.652;9.792;2022-12-18T07:32:50;13.67;;;8.83;;
30243;SDS011;64022;53.652;9.792;2022-12-18T07:35:15;13.57;;;8.77;;
30243;SDS011;64022;53.652;9.792;2022-12-18T07:37:41;16.07;;;8.37;;
30243;SDS011;64022;53.652;9.792;2022-12-18T07:40:07;13.33;;;8.77;;
30243;SDS011;64022;53.652;9.792;2022-12-18T07:42:33;13.25;;;7.90;;
30243;SDS011;64022;53.652;9.792;2022-12-18T07:44:59;13.68;;;8.25;;
30243;SDS011;64022;53.652;9.792;2022-12-18T07:47:26;13.15;;;8.50;;
30243;SDS011;64022;53.652;9.792;2022-12-18T07:49:53;13.98;;;8.48;;
30243;SDS011;64022;53.652;9.792;2022-12-18T07:52:18;22.10;;;8.57;;
30243;SDS011;64022;53.652;9.792;2022-12-18T07:54:44;16.90;;;8.53;;
30243;SDS011;64022;53.652;9.792;2022-12-18T07:57:09;14.17;;;8.33;;
30243;SDS011;64022;53.652;9.792;2022-12-18T07:59:35;20.10;;;7.90;;
30243;SDS011;64022;53.652;9.792;2022-12-18T08:02:01;14.50;;;7.30;;
30243;SDS011;64022;53.652;9.792;2022-12-18T08:04:26;15.67;;;8.20;;
30243;SDS011;64022;53.652;9.792;2022-12-18T08:06:52;13.77;;;7.30;;
30243;SDS011;64022;53.652;9.792;2022-12-18T08:09:17;13.20;;;7.90;;
30243;SDS011;64022;53.652;9.792;2022-12-18T08:11:43;14.47;;;7.80;;
30243;SDS011;64022;53.652;9.792;2022-12-18T08:14:08;11.57;;;7.87;;
30243;SDS011;64022;53.652;9.792;2022-12-18T08:16:34;13.63;;;8.07;;
30243;SDS011;64022;53.652;9.792;2022-12-18T08:19:00;11.97;;;7.70;;
30243;SDS011;64022;53.652;9.792;2022-12-18T08:21:27;12.03;;;7.13;;
30243;SDS011;64022;53.652;9.792;2022-12-18T08:23:54;11.20;;;6.78;;
30243;SDS011;64022;53.652;9.792;2022-12-18T08:26:22;12.13;;;7.10;;
30243;SDS011;64022;53.652;9.792;2022-12-18T08:28:49;17.15;;;7.38;;
30243;SDS011;64022;53.652;9.792;2022-12-18T08:31:16;15.27;;;6.85;;
30243;SDS011;64022;53.652;9.792;2022-12-18T08:33:42;10.80;;;6.55;;
30243;SDS011;64022;53.652;9.792;2022-12-18T08:36:08;13.93;;;6.83;;
30243;SDS011;64022;53.652;9.792;2022-12-18T08:38:35;11.93;;;6.97;;
30243;SDS011;64022;53.652;9.792;2022-12-18T08:43:27;9.85;;;6.70;;
30243;SDS011;64022;53.652;9.792;2022-12-18T08:46:11;9.40;;;5.78;;
30243;SDS011;64022;53.652;9.792;2022-12-18T08:48:37;11.40;;;6.73;;
30243;SDS011;64022;53.652;9.792;2022-12-18T08:51:02;10.60;;;6.30;;
30243;SDS011;64022;53.652;9.792;2022-12-18T08:53:28;11.70;;;7.03;;
30243;SDS011;64022;53.652;9.792;2022-12-18T08:55:53;13.23;;;6.50;;
30243;SDS011;64022;53.652;9.792;2022-12-18T08:58:21;11.00;;;6.28;;
30243;SDS011;64022;53.652;9.792;2022-12-18T09:00:46;10.23;;;6.30;;
30243;SDS011;64022;53.652;9.792;2022-12-18T09:03:16;10.50;;;6.23;;
30243;SDS011;64022;53.652;9.792;2022-12-18T09:05:43;10.80;;;6.65;;
30243;SDS011;64022;53.652;9.792;2022-12-18T09:08:10;10.88;;;6.00;;
30243;SDS011;64022;53.652;9.792;2022-12-18T09:10:43;8.20;;;6.03;;
30243;SDS011;64022;53.652;9.792;2022-12-18T09:13:10;11.15;;;6.40;;
30243;SDS011;64022;53.652;9.792;2022-12-18T09:15:40;8.05;;;5.45;;
30243;SDS011;64022;53.652;9.792;2022-12-18T09:18:10;9.15;;;5.93;;
30243;SDS011;64022;53.652;9.792;2022-12-18T09:20:36;8.13;;;5.53;;
30243;SDS011;64022;53.652;9.792;2022-12-18T09:23:03;10.07;;;6.07;;
30243;SDS011;64022;53.652;9.792;2022-12-18T09:25:29;9.30;;;6.45;;
30243;SDS011;64022;53.652;9.792;2022-12-18T09:28:00;11.43;;;6.40;;
30243;SDS011;64022;53.652;9.792;2022-12-18T09:30:40;10.05;;;5.85;;
30243;SDS011;64022;53.652;9.792;2022-12-18T09:33:08;8.98;;;5.45;;
30243;SDS011;64022;53.652;9.792;2022-12-18T09:35:38;7.70;;;6.03;;
30243;SDS011;64022;53.652;9.792;2022-12-18T09:38:05;8.77;;;5.75;;
30243;SDS011;64022;53.652;9.792;2022-12-18T09:40:42;8.75;;;5.90;;
30243;SDS011;64022;53.652;9.792;2022-12-18T09:43:19;10.40;;;5.90;;
30243;SDS011;64022;53.652;9.792;2022-12-18T09:46:10;13.65;;;5.60;;
30243;SDS011;64022;53.652;9.792;2022-12-18T09:48:42;10.63;;;6.18;;
30243;SDS011;64022;53.652;9.792;2022-12-18T09:51:18;10.90;;;6.00;;
30243;SDS011;64022;53.652;9.792;2022-12-18T09:53:58;8.85;;;5.15;;
30243;SDS011;64022;53.652;9.792;2022-12-18T09:56:28;6.30;;;4.95;;
30243;SDS011;64022;53.652;9.792;2022-12-18T09:58:59;10.00;;;6.07;;
30243;SDS011;64022;53.652;9.792;2022-12-18T10:01:27;9.60;;;5.82;;
30243;SDS011;64022;53.652;9.792;2022-12-18T10:03:54;11.23;;;5.47;;
30243;SDS011;64022;53.652;9.792;2022-12-18T10:06:36;8.98;;;5.47;;
30243;SDS011;64022;53.652;9.792;2022-12-18T10:09:20;11.15;;;5.53;;
30243;SDS011;64022;53.652;9.792;2022-12-18T10:12:18;7.72;;;5.53;;
30243;SDS011;64022;53.652;9.792;2022-12-18T10:14:55;7.80;;;5.30;;
30243;SDS011;64022;53.652;9.792;2022-12-18T10:23:04;8.45;;;5.70;;
30243;SDS011;64022;53.652;9.792;2022-12-18T10:26:06;8.88;;;6.10;;
30243;SDS011;64022;53.652;9.792;2022-12-18T10:28:35;9.05;;;5.28;;
30243;SDS011;64022;53.652;9.792;2022-12-18T10:31:02;7.90;;;5.72;;
30243;SDS011;64022;53.652;9.792;2022-12-18T10:33:41;9.57;;;6.25;;
30243;SDS011;64022;53.652;9.792;2022-12-18T10:36:07;8.03;;;5.47;;
30243;SDS011;64022;53.652;9.792;2022-12-18T10:38:33;8.50;;;4.97;;
30243;SDS011;64022;53.652;9.792;2022-12-18T10:41:00;8.53;;;5.13;;
30243;SDS011;64022;53.652;9.792;2022-12-18T10:43:37;8.48;;;5.35;;
30243;SDS011;64022;53.652;9.792;2022-12-18T10:51:05;7.50;;;5.00;;
30243;SDS011;64022;53.652;9.792;2022-12-18T10:53:33;8.30;;;5.50;;
30243;SDS011;64022;53.652;9.792;2022-12-18T10:56:00;6.80;;;5.35;;
30243;SDS011;64022;53.652;9.792;2022-12-18T10:58:28;9.75;;;5.30;;
30243;SDS011;64022;53.652;9.792;2022-12-18T11:01:08;7.32;;;5.25;;
30243;SDS011;64022;53.652;9.792;2022-12-18T11:04:01;8.13;;;5.43;;
30243;SDS011;64022;53.652;9.792;2022-12-18T11:06:32;8.68;;;5.43;;
30243;SDS011;64022;53.652;9.792;2022-12-18T11:11:28;7.95;;;5.60;;
30243;SDS011;64022;53.652;9.792;2022-12-18T11:16:28;6.78;;;5.13;;
30243;SDS011;64022;53.652;9.792;2022-12-18T11:19:21;7.63;;;5.30;;
30243;SDS011;64022;53.652;9.792;2022-12-18T11:21:47;9.70;;;5.03;;
30243;SDS011;64022;53.652;9.792;2022-12-18T11:24:20;11.10;;;5.22;;
30243;SDS011;64022;53.652;9.792;2022-12-18T11:26:53;7.30;;;5.20;;
30243;SDS011;64022;53.652;9.792;2022-12-18T11:29:23;6.78;;;5.25;;
30243;SDS011;64022;53.652;9.792;2022-12-18T11:32:08;8.35;;;4.97;;
30243;SDS011;64022;53.652;9.792;2022-12-18T11:34:59;6.78;;;4.78;;
30243;SDS011;64022;53.652;9.792;2022-12-18T11:37:37;7.13;;;4.95;;
30243;SDS011;64022;53.652;9.792;2022-12-18T11:40:14;7.50;;;5.00;;
30243;SDS011;64022;53.652;9.792;2022-12-18T11:42:46;8.63;;;5.17;;
30243;SDS011;64022;53.652;9.792;2022-12-18T11:45:24;9.93;;;4.88;;
30243;SDS011;64022;53.652;9.792;2022-12-18T11:47:57;8.43;;;5.50;;
30243;SDS011;64022;53.652;9.792;2022-12-18T11:50:38;11.25;;;5.68;;
30243;SDS011;64022;53.652;9.792;2022-12-18T11:53:15;7.63;;;5.30;;
30243;SDS011;64022;53.652;9.792;2022-12-18T11:55:49;6.90;;;5.13;;
30243;SDS011;64022;53.652;9.792;2022-12-18T11:58:39;6.40;;;4.57;;
30243;SDS011;64022;53.652;9.792;2022-12-18T12:09:12;6.43;;;4.85;;
30243;SDS011;64022;53.652;9.792;2022-12-18T12:15:04;8.80;;;4.50;;
30243;SDS011;64022;53.652;9.792;2022-12-18T12:20:49;5.78;;;4.82;;
30243;SDS011;64022;53.652;9.792;2022-12-18T12:23:33;8.80;;;5.15;;
30243;SDS011;64022;53.652;9.792;2022-12-18T12:26:06;7.40;;;4.57;;
30243;SDS011;64022;53.652;9.792;2022-12-18T12:31:23;9.38;;;4.43;;
30243;SDS011;64022;53.652;9.792;2022-12-18T12:36:36;7.82;;;4.82;;
30243;SDS011;64022;53.652;9.792;2022-12-18T12:39:23;7.72;;;4.68;;
30243;SDS011;64022;53.652;9.792;2022-12-18T12:41:57;8.27;;;4.63;;
30243;SDS011;64022;53.652;9.792;2022-12-18T12:44:43;6.78;;;4.10;;
30243;SDS011;64022;53.652;9.792;2022-12-18T12:47:14;7.97;;;4.53;;
30243;SDS011;64022;53.652;9.792;2022-12-18T12:49:45;6.32;;;4.53;;
30243;SDS011;64022;53.652;9.792;2022-12-18T12:52:17;5.43;;;4.28;;
30243;SDS011;64022;53.652;9.792;2022-12-18T12:54:53;5.88;;;4.03;;
30243;SDS011;64022;53.652;9.792;2022-12-18T12:57:40;10.07;;;4.78;;
30243;SDS011;64022;53.652;9.792;2022-12-18T13:00:16;4.65;;;4.10;;
30243;SDS011;64022;53.652;9.792;2022-12-18T13:02:47;11.18;;;4.30;;
30243;SDS011;64022;53.652;9.792;2022-12-18T13:05:38;5.97;;;4.20;;
30243;SDS011;64022;53.652;9.792;2022-12-18T13:08:11;6.60;;;4.70;;
30243;SDS011;64022;53.652;9.792;2022-12-18T13:10:47;7.00;;;4.43;;
30243;SDS011;64022;53.652;9.792;2022-12-18T13:13:13;8.10;;;4.60;;
30243;SDS011;64022;53.652;9.792;2022-12-18T13:15:47;9.90;;;4.25;;
30243;SDS011;64022;53.652;9.792;2022-12-18T13:18:28;7.37;;;4.50;;
30243;SDS011;64022;53.652;9.792;2022-12-18T13:25:48;5.93;;;4.13;;
30243;SDS011;64022;53.652;9.792;2022-12-18T13:28:18;8.60;;;4.63;;
30243;SDS011;64022;53.652;9.792;2022-12-18T13:30:50;8.55;;;3.47;;
30243;SDS011;64022;53.652;9.792;2022-12-18T13:48:25;6.00;;;4.20;;
30243;SDS011;64022;53.652;9.792;2022-12-18T13:50:53;7.18;;;4.07;;
30243;SDS011;64022;53.652;9.792;2022-12-18T13:53:43;6.22;;;4.50;;
30243;SDS011;64022;53.652;9.792;2022-12-18T13:56:24;6.93;;;4.82;;
30243;SDS011;64022;53.652;9.792;2022-12-18T14:01:56;6.40;;;4.50;;
30243;SDS011;64022;53.652;9.792;2022-12-18T14:04:30;7.60;;;4.60;;
30243;SDS011;64022;53.652;9.792;2022-12-18T14:07:01;10.15;;;4.75;;
30243;SDS011;64022;53.652;9.792;2022-12-18T14:09:31;5.80;;;4.25;;
30243;SDS011;64022;53.652;9.792;2022-12-18T14:12:05;6.63;;;4.50;;
30243;SDS011;64022;53.652;9.792;2022-12-18T14:15:06;8.63;;;4.25;;
30243;SDS011;64022;53.652;9.792;2022-12-18T14:17:52;12.10;;;4.38;;
30243;SDS011;64022;53.652;9.792;2022-12-18T14:20:24;9.18;;;4.50;;
30243;SDS011;64022;53.652;9.792;2022-12-18T14:22:51;6.45;;;4.55;;
30243;SDS011;64022;53.652;9.792;2022-12-18T14:25:24;7.03;;;4.80;;
30243;SDS011;64022;53.652;9.792;2022-12-18T14:28:13;10.68;;;4.05;;
30243;SDS011;64022;53.652;9.792;2022-12-18T14:30:40;6.97;;;4.82;;
30243;SDS011;64022;53.652;9.792;2022-12-18T14:35:52;7.33;;;4.87;;
30243;SDS011;64022;53.652;9.792;2022-12-18T14:38:22;8.88;;;5.20;;
30243;SDS011;64022;53.652;9.792;2022-12-18T14:40:51;8.90;;;4.88;;
30243;SDS011;64022;53.652;9.792;2022-12-18T14:43:34;8.48;;;5.05;;
30243;SDS011;64022;53.652;9.792;2022-12-18T14:46:01;8.20;;;5.07;;
30243;SDS011;64022;53.652;9.792;2022-12-18T14:48:36;15.55;;;6.10;;
30243;SDS011;64022;53.652;9.792;2022-12-18T14:53:39;19.23;;;6.45;;
30243;SDS011;64022;53.652;9.792;2022-12-18T14:56:15;16.48;;;6.50;;
30243;SDS011;64022;53.652;9.792;2022-12-18T14:58:45;14.35;;;6.93;;
30243;SDS011;64022;53.652;9.792;2022-12-18T15:01:29;11.98;;;7.20;;
30243;SDS011;64022;53.652;9.792;2022-12-18T15:04:00;17.48;;;7.57;;
30243;SDS011;64022;53.652;9.792;2022-12-18T15:06:28;17.27;;;7.63;;
30243;SDS011;64022;53.652;9.792;2022-12-18T15:09:03;28.23;;;8.50;;
30243;SDS011;64022;53.652;9.792;2022-12-18T15:11:49;18.92;;;8.52;;
30243;SDS011;64022;53.652;9.792;2022-12-18T15:14:21;15.20;;;8.18;;
30243;SDS011;64022;53.652;9.792;2022-12-18T15:17:17;14.75;;;8.98;;
30243;SDS011;64022;53.652;9.792;2022-12-18T15:19:45;23.88;;;8.88;;
30243;SDS011;64022;53.652;9.792;2022-12-18T15:22:16;16.48;;;8.88;;
30243;SDS011;64022;53.652;9.792;2022-12-18T15:24:45;20.63;;;9.07;;
30243;SDS011;64022;53.652;9.792;2022-12-18T15:30:39;17.90;;;9.68;;
30243;SDS011;64022;53.652;9.792;2022-12-18T15:32:46;20.85;;;9.88;;
30243;SDS011;64022;53.652;9.792;2022-12-18T15:35:15;21.77;;;10.02;;
30243;SDS011;64022;53.652;9.792;2022-12-18T15:37:48;15.52;;;9.88;;
30243;SDS011;64022;53.652;9.792;2022-12-18T15:40:16;15.15;;;10.27;;
30243;SDS011;64022;53.652;9.792;2022-12-18T15:42:44;20.83;;;12.68;;
30243;SDS011;64022;53.652;9.792;2022-12-18T15:45:29;22.50;;;11.73;;
30243;SDS011;64022;53.652;9.792;2022-12-18T15:47:55;25.17;;;13.17;;
30243;SDS011;64022;53.652;9.792;2022-12-18T15:50:21;21.20;;;12.60;;
30243;SDS011;64022;53.652;9.792;2022-12-18T15:52:47;19.07;;;13.50;;
30243;SDS011;64022;53.652;9.792;2022-12-18T15:55:17;22.65;;;13.52;;
30243;SDS011;64022;53.652;9.792;2022-12-18T15:58:06;18.92;;;13.32;;
30243;SDS011;64022;53.652;9.792;2022-12-18T16:00:34;21.15;;;12.70;;
30243;SDS011;64022;53.652;9.792;2022-12-18T16:03:01;18.35;;;13.15;;
30243;SDS011;64022;53.652;9.792;2022-12-18T16:07:54;19.05;;;12.35;;
30243;SDS011;64022;53.652;9.792;2022-12-18T16:10:19;16.57;;;12.50;;
30243;SDS011;64022;53.652;9.792;2022-12-18T16:12:45;17.97;;;12.43;;
30243;SDS011;64022;53.652;9.792;2022-12-18T16:15:12;25.80;;;14.30;;
30243;SDS011;64022;53.652;9.792;2022-12-18T16:17:39;21.30;;;13.35;;
30243;SDS011;64022;53.652;9.792;2022-12-18T16:20:06;21.08;;;13.98;;
30243;SDS011;64022;53.652;9.792;2022-12-18T16:22:45;19.33;;;13.32;;
30243;SDS011;64022;53.652;9.792;2022-12-18T16:25:16;19.20;;;14.18;;
30243;SDS011;64022;53.652;9.792;2022-12-18T16:27:44;24.13;;;14.82;;
30243;SDS011;64022;53.652;9.792;2022-12-18T16:30:13;21.57;;;14.27;;
30243;SDS011;64022;53.652;9.792;2022-12-18T16:32:43;365.42;;;126.00;;
30243;SDS011;64022;53.652;9.792;2022-12-18T16:35:10;246.77;;;91.10;;
30243;SDS011;64022;53.652;9.792;2022-12-18T16:37:36;246.13;;;95.32;;
30243;SDS011;64022;53.652;9.792;2022-12-18T16:40:02;251.83;;;100.27;;